createdAt,value
2022-12-18T00:00:11.480Z,13.77
2022-12-18T00:02:39.759Z,13.43
2022-12-18T00:05:09.536Z,11.30
2022-12-18T00:07:39.145Z,12.57
2022-12-18T00:10:08.986Z,12.15
2022-12-18T00:12:37.250Z,12.68
2022-12-18T00:15:08.061Z,11.07
2022-12-18T00:17:36.298Z,11.23
2022-12-18T00:20:04.897Z,12.23
2022-12-18T00:22:33.106Z,12.77
2022-12-18T00:25:01.329Z,12.65
2022-12-18T00:27:29.566Z,12.45
2022-12-18T00:29:57.795Z,11.57
2022-12-18T00:32:27.380Z,12.63
2022-12-18T00:34:55.595Z,11.45
2022-12-18T00:37:23.878Z,11.88
2022-12-18T00:39:52.061Z,12.88
2022-12-18T00:42:37.547Z,12.05
2022-12-18T00:45:12.332Z,12.20
2022-12-18T00:47:43.013Z,11.07
2022-12-18T00:50:12.222Z,13.25
2022-12-18T00:52:40.468Z,12.75
2022-12-18T00:55:09.577Z,10.82
2022-12-18T00:57:37.921Z,12.35
2022-12-18T01:00:09.539Z,11.40
2022-12-18T01:05:09.947Z,12.10
2022-12-18T01:07:38.249Z,11.57
2022-12-18T01:10:08.438Z,13.77
2022-12-18T01:12:37.237Z,17.55
2022-12-18T01:15:07.224Z,11.02
2022-12-18T01:17:35.736Z,12.60
2022-12-18T01:20:04.289Z,10.68
2022-12-18T01:22:33.889Z,12.98
2022-12-18T01:25:02.168Z,11.25
2022-12-18T01:27:30.510Z,12.07
2022-12-18T01:29:58.746Z,12.52
2022-12-18T01:32:26.983Z,10.98
2022-12-18T01:34:55.183Z,12.25
2022-12-18T01:37:23.376Z,12.32
2022-12-18T01:39:55.350Z,13.07
2022-12-18T01:42:26.086Z,11.65
2022-12-18T01:45:03.160Z,11.85
2022-12-18T01:47:40.534Z,10.80
2022-12-18T01:50:14.051Z,11.27
2022-12-18T01:52:44.098Z,12.25
2022-12-18T01:55:15.984Z,12.13
2022-12-18T01:57:44.297Z,10.93
2022-12-18T02:00:16.939Z,11.07
2022-12-18T02:02:49.710Z,11.93
2022-12-18T02:05:23.160Z,12.25
2022-12-18T02:08:08.581Z,11.85
2022-12-18T02:10:49.163Z,10.75
2022-12-18T02:13:26.121Z,12.75
2022-12-18T02:16:04.428Z,11.32
2022-12-18T02:18:38.513Z,10.65
2022-12-18T02:21:15.883Z,12.05
2022-12-18T02:23:53.913Z,9.93
2022-12-18T02:26:29.010Z,12.93
2022-12-18T02:29:03.214Z,11.85
2022-12-18T02:31:38.874Z,11.25
2022-12-18T02:34:10.209Z,10.90
2022-12-18T02:36:42.426Z,11.77
2022-12-18T02:39:13.979Z,11.85
2022-12-18T02:41:43.996Z,10.70
2022-12-18T02:44:14.675Z,11.67
2022-12-18T02:46:46.679Z,11.20
2022-12-18T02:49:29.210Z,10.63
2022-12-18T02:52:05.550Z,11.90
2022-12-18T02:54:51.767Z,12.13
2022-12-18T02:57:32.930Z,12.73
2022-12-18T03:00:06.957Z,11.25
2022-12-18T03:02:43.954Z,11.10
2022-12-18T03:05:18.210Z,11.50
2022-12-18T03:07:52.863Z,11.48
2022-12-18T03:10:26.942Z,11.15
2022-12-18T03:13:02.756Z,12.93
2022-12-18T03:15:35.980Z,12.55
2022-12-18T03:18:09.997Z,10.48
2022-12-18T03:20:42.100Z,10.65
2022-12-18T03:23:16.507Z,11.63
2022-12-18T03:25:47.080Z,11.00
2022-12-18T03:28:22.380Z,13.88
2022-12-18T03:30:57.341Z,11.48
2022-12-18T03:33:30.560Z,11.98
2022-12-18T03:35:59.047Z,13.65
2022-12-18T03:38:27.404Z,12.02
2022-12-18T03:41:09.014Z,11.60
2022-12-18T03:43:51.221Z,11.15
2022-12-18T03:46:29.793Z,11.70
2022-12-18T03:49:04.104Z,11.63
2022-12-18T03:51:42.119Z,11.20
2022-12-18T03:54:12.342Z,11.23
2022-12-18T03:56:50.749Z,12.65
2022-12-18T03:59:22.295Z,12.55
2022-12-18T04:01:53.478Z,11.07
2022-12-18T04:04:24.062Z,12.90
2022-12-18T04:06:53.200Z,11.85
2022-12-18T04:09:22.916Z,11.43
2022-12-18T04:11:51.214Z,12.40
2022-12-18T04:14:20.906Z,11.68
2022-12-18T04:16:49.239Z,12.10
2022-12-18T04:19:17.605Z,11.10
2022-12-18T04:21:45.856Z,11.98
2022-12-18T04:24:14.081Z,12.57
2022-12-18T04:26:42.310Z,11.40
2022-12-18T04:29:10.501Z,12.45
2022-12-18T04:31:40.081Z,11.35
2022-12-18T04:34:08.303Z,11.73
2022-12-18T04:36:36.557Z,12.30
2022-12-18T04:39:04.925Z,12.27
2022-12-18T04:41:33.175Z,12.60
2022-12-18T04:44:01.355Z,10.70
2022-12-18T04:46:29.658Z,12.80
2022-12-18T04:48:59.318Z,11.52
2022-12-18T04:51:27.643Z,11.07
2022-12-18T04:53:57.442Z,11.10
2022-12-18T04:56:25.960Z,11.30
2022-12-18T04:58:54.173Z,12.52
2022-12-18T05:01:22.469Z,11.63
2022-12-18T05:03:50.869Z,12.70
2022-12-18T05:06:20.590Z,12.43
2022-12-18T05:08:48.785Z,11.48
2022-12-18T05:11:17.635Z,11.48
2022-12-18T05:13:46.725Z,10.82
2022-12-18T05:16:16.372Z,11.52
2022-12-18T05:18:44.717Z,12.23
2022-12-18T05:21:12.952Z,11.80
2022-12-18T05:23:42.910Z,12.25
2022-12-18T05:26:17.334Z,11.38
2022-12-18T05:28:46.062Z,10.65
2022-12-18T05:31:14.482Z,11.13
2022-12-18T05:33:43.084Z,12.20
2022-12-18T05:36:12.709Z,11.27
2022-12-18T05:38:42.638Z,11.75
2022-12-18T05:41:11.849Z,10.50
2022-12-18T05:43:42.248Z,12.65
2022-12-18T05:46:15.227Z,12.90
2022-12-18T05:48:44.014Z,11.85
2022-12-18T05:51:15.465Z,11.00
2022-12-18T05:53:45.833Z,10.27
2022-12-18T05:56:24.605Z,8.93
2022-12-18T05:58:55.182Z,11.90
2022-12-18T06:01:27.296Z,11.18
2022-12-18T06:03:55.904Z,12.48
2022-12-18T06:06:26.325Z,13.13
2022-12-18T06:08:57.549Z,10.20
2022-12-18T06:11:28.374Z,11.07
2022-12-18T06:13:59.441Z,11.13
2022-12-18T06:16:29.565Z,12.77
2022-12-18T06:18:58.877Z,11.45
2022-12-18T06:21:28.192Z,11.68
2022-12-18T06:23:58.011Z,10.25
2022-12-18T06:26:28.568Z,11.82
2022-12-18T06:28:57.333Z,11.63
2022-12-18T06:31:26.276Z,11.88
2022-12-18T06:33:54.734Z,11.02
2022-12-18T06:36:23.171Z,10.15
2022-12-18T06:38:51.808Z,11.82
2022-12-18T06:41:23.470Z,11.13
2022-12-18T06:43:54.531Z,10.60
2022-12-18T06:46:25.139Z,11.55
2022-12-18T06:48:53.799Z,10.38
2022-12-18T06:51:24.007Z,11.88
2022-12-18T06:53:52.613Z,12.05
2022-12-18T06:56:22.321Z,11.70
2022-12-18T06:58:50.538Z,11.32
2022-12-18T07:01:18.968Z,13.02
2022-12-18T07:03:47.382Z,14.02
2022-12-18T07:06:17.801Z,11.63
2022-12-18T07:08:46.813Z,13.00
2022-12-18T07:11:15.437Z,9.95
2022-12-18T07:13:45.573Z,10.95
2022-12-18T07:16:22.381Z,13.00
2022-12-18T07:18:52.865Z,10.32
2022-12-18T07:21:22.318Z,14.10
2022-12-18T07:23:50.860Z,11.98
2022-12-18T07:26:21.224Z,11.18
2022-12-18T07:28:51.640Z,13.02
2022-12-18T07:31:22.641Z,12.27
2022-12-18T07:36:20.116Z,12.65
2022-12-18T07:38:50.017Z,11.52
2022-12-18T07:41:19.667Z,10.05
2022-12-18T07:43:48.428Z,12.05
2022-12-18T07:46:18.800Z,11.65
2022-12-18T07:48:49.680Z,11.85
2022-12-18T07:51:19.976Z,11.43
2022-12-18T07:53:52.019Z,11.65
2022-12-18T07:56:30.418Z,11.15
2022-12-18T07:59:00.225Z,11.82
2022-12-18T08:01:30.114Z,12.18
2022-12-18T08:03:59.469Z,12.00
2022-12-18T08:06:28.060Z,11.40
2022-12-18T08:08:57.955Z,12.23
2022-12-18T08:11:28.884Z,12.02
2022-12-18T08:13:58.349Z,11.40
2022-12-18T08:16:27.206Z,11.18
2022-12-18T08:18:57.032Z,11.68
2022-12-18T08:21:28.023Z,10.55
2022-12-18T08:26:33.745Z,11.38
2022-12-18T08:29:02.819Z,11.27
2022-12-18T08:31:32.412Z,13.82
2022-12-18T08:34:02.177Z,11.27
2022-12-18T08:36:30.377Z,11.45
2022-12-18T08:38:59.424Z,11.40
2022-12-18T08:41:28.722Z,11.63
2022-12-18T08:44:14.340Z,11.85
2022-12-18T08:46:45.461Z,10.77
2022-12-18T08:49:15.572Z,10.68
2022-12-18T08:51:43.817Z,9.93
2022-12-18T08:54:14.801Z,11.30
2022-12-18T08:59:18.771Z,10.40
2022-12-18T09:01:48.497Z,10.75
2022-12-18T09:04:18.494Z,9.80
2022-12-18T09:06:46.730Z,8.95
2022-12-18T09:09:15.001Z,10.07
2022-12-18T09:11:43.379Z,10.13
2022-12-18T09:14:13.310Z,9.57
2022-12-18T09:16:41.645Z,9.55
2022-12-18T09:19:11.014Z,9.55
2022-12-18T09:21:46.162Z,11.48
2022-12-18T09:24:17.567Z,15.35
2022-12-18T09:26:47.235Z,10.05
2022-12-18T09:29:19.099Z,10.43
2022-12-18T09:31:47.445Z,10.15
2022-12-18T09:34:15.745Z,8.38
2022-12-18T09:36:45.374Z,8.85
2022-12-18T09:39:13.676Z,10.70
2022-12-18T09:41:54.481Z,9.15
2022-12-18T09:44:27.591Z,10.07
2022-12-18T09:47:08.042Z,9.30
2022-12-18T09:49:42.677Z,9.48
2022-12-18T09:52:19.564Z,8.63
2022-12-18T09:54:56.155Z,9.95
2022-12-18T09:57:26.639Z,10.00
2022-12-18T09:59:59.281Z,7.63
2022-12-18T10:02:29.189Z,9.63
2022-12-18T10:05:09.979Z,10.02
2022-12-18T10:07:56.030Z,8.45
2022-12-18T10:10:34.901Z,8.48
2022-12-18T10:13:17.622Z,9.10
2022-12-18T10:16:00.738Z,9.82
2022-12-18T10:18:49.025Z,9.10
2022-12-18T10:21:25.804Z,8.68
2022-12-18T10:24:14.527Z,8.93
2022-12-18T10:26:43.922Z,8.18
2022-12-18T10:29:15.383Z,9.13
2022-12-18T10:31:43.746Z,9.25
2022-12-18T10:34:15.193Z,9.90
2022-12-18T10:36:43.578Z,9.02
2022-12-18T10:39:24.270Z,8.55
2022-12-18T10:41:52.772Z,9.27
2022-12-18T10:44:23.096Z,9.80
2022-12-18T10:46:56.988Z,8.90
2022-12-18T10:49:28.669Z,9.07
2022-12-18T10:52:10.067Z,10.02
2022-12-18T10:54:40.886Z,7.78
2022-12-18T10:57:32.956Z,9.15
2022-12-18T11:00:22.763Z,8.93
2022-12-18T11:02:51.318Z,9.50
2022-12-18T11:05:30.543Z,8.40
2022-12-18T11:08:00.567Z,8.50
2022-12-18T11:10:34.009Z,8.55
2022-12-18T11:13:19.862Z,7.97
2022-12-18T11:15:48.678Z,8.38
2022-12-18T11:18:22.715Z,9.15
2022-12-18T11:20:59.040Z,9.48
2022-12-18T11:23:29.667Z,9.70
2022-12-18T11:26:03.319Z,9.77
2022-12-18T11:28:39.588Z,8.68
2022-12-18T11:31:26.458Z,10.02
2022-12-18T11:34:28.535Z,7.38
2022-12-18T11:36:51.540Z,8.68
2022-12-18T11:39:26.230Z,9.25
2022-12-18T11:42:12.872Z,9.65
2022-12-18T11:44:49.131Z,8.43
2022-12-18T11:47:28.625Z,9.13
2022-12-18T11:50:01.124Z,9.60
2022-12-18T11:52:35.626Z,8.40
2022-12-18T11:55:13.614Z,8.55
2022-12-18T11:57:54.434Z,9.52
2022-12-18T12:00:24.470Z,8.10
2022-12-18T12:03:24.598Z,8.25
2022-12-18T12:06:08.747Z,9.02
2022-12-18T12:08:51.819Z,8.25
2022-12-18T12:11:29.176Z,8.43
2022-12-18T12:14:14.455Z,8.77
2022-12-18T12:16:54.451Z,8.07
2022-12-18T12:19:38.766Z,8.55
2022-12-18T12:22:18.947Z,8.07
2022-12-18T12:25:04.859Z,8.05
2022-12-18T12:27:43.031Z,7.68
2022-12-18T12:30:21.624Z,8.80
2022-12-18T12:33:10.780Z,8.75
2022-12-18T12:35:51.309Z,12.85
2022-12-18T12:38:27.164Z,9.00
2022-12-18T12:41:03.490Z,9.73
2022-12-18T12:43:46.081Z,8.80
2022-12-18T12:46:28.412Z,8.40
2022-12-18T12:48:59.757Z,8.07
2022-12-18T12:51:34.766Z,8.80
2022-12-18T12:54:06.925Z,8.00
2022-12-18T12:56:47.021Z,9.20
2022-12-18T12:59:24.286Z,8.30
2022-12-18T13:04:37.826Z,7.38
2022-12-18T13:07:17.423Z,8.25
2022-12-18T13:10:27.058Z,9.20
2022-12-18T13:12:57.126Z,7.53
2022-12-18T13:15:36.750Z,8.25
2022-12-18T13:18:19.358Z,8.20
2022-12-18T13:20:55.215Z,8.65
2022-12-18T13:23:44.262Z,8.38
2022-12-18T13:26:35.271Z,8.90
2022-12-18T13:29:05.435Z,9.13
2022-12-18T13:32:22.005Z,9.53
2022-12-18T13:34:51.274Z,9.60
2022-12-18T13:37:52.477Z,8.30
2022-12-18T13:41:00.658Z,8.40
2022-12-18T13:43:38.436Z,9.40
2022-12-18T13:46:22.968Z,9.07
2022-12-18T13:48:58.129Z,9.20
2022-12-18T13:51:28.491Z,9.38
2022-12-18T13:54:01.584Z,8.45
2022-12-18T13:56:32.769Z,8.45
2022-12-18T13:59:24.989Z,8.18
2022-12-18T14:01:56.881Z,8.32
2022-12-18T14:04:29.560Z,8.38
2022-12-18T14:07:04.090Z,9.70
2022-12-18T14:09:40.481Z,8.30
2022-12-18T14:12:34.706Z,8.73
2022-12-18T14:15:03.955Z,8.95
2022-12-18T14:17:33.732Z,9.50
2022-12-18T14:20:03.238Z,9.55
2022-12-18T14:22:32.785Z,8.30
2022-12-18T14:25:21.395Z,8.70
2022-12-18T14:27:53.549Z,9.30
2022-12-18T14:30:29.087Z,8.65
2022-12-18T14:33:05.409Z,8.85
2022-12-18T14:35:34.444Z,8.02
2022-12-18T14:38:21.937Z,8.55
2022-12-18T14:40:55.846Z,8.52
2022-12-18T14:43:24.269Z,7.63
2022-12-18T14:45:53.352Z,7.82
2022-12-18T14:48:24.645Z,8.57
2022-12-18T14:51:03.407Z,9.02
2022-12-18T14:53:42.170Z,9.52
2022-12-18T14:56:22.475Z,8.30
2022-12-18T14:58:54.124Z,9.00
2022-12-18T15:01:26.679Z,8.57
2022-12-18T15:03:56.226Z,9.10
2022-12-18T15:06:35.413Z,9.07
2022-12-18T15:09:06.066Z,7.38
2022-12-18T15:11:48.331Z,8.65
2022-12-18T15:14:42.385Z,8.07
2022-12-18T15:17:20.772Z,8.60
2022-12-18T15:19:51.151Z,8.77
2022-12-18T15:22:23.984Z,9.45
2022-12-18T15:24:53.892Z,8.43
2022-12-18T15:27:31.393Z,9.90
2022-12-18T15:30:24.503Z,9.02
2022-12-18T15:32:55.549Z,8.95
2022-12-18T15:35:26.348Z,9.25
2022-12-18T15:37:55.012Z,8.43
2022-12-18T15:40:25.261Z,10.57
2022-12-18T15:43:14.653Z,9.32
2022-12-18T15:45:42.971Z,10.02
2022-12-18T15:48:23.189Z,8.80
2022-12-18T15:50:52.710Z,18.33
2022-12-18T15:53:21.816Z,10.02
2022-12-18T15:56:07.691Z,8.90
2022-12-18T15:58:38.148Z,9.55
2022-12-18T16:01:06.856Z,9.00
2022-12-18T16:03:35.833Z,8.27
2022-12-18T16:06:04.581Z,8.77
2022-12-18T16:08:33.084Z,7.82
2022-12-18T16:11:01.976Z,10.23
2022-12-18T16:13:30.304Z,8.60
2022-12-18T16:16:00.245Z,8.63
2022-12-18T16:18:28.568Z,9.57
2022-12-18T16:20:56.881Z,8.25
2022-12-18T16:23:25.432Z,9.13
2022-12-18T16:25:53.750Z,8.68
2022-12-18T16:28:22.075Z,9.52
2022-12-18T16:30:50.448Z,9.60
2022-12-18T16:33:20.173Z,8.82
2022-12-18T16:35:55.004Z,9.13
2022-12-18T16:38:25.703Z,9.35
2022-12-18T16:41:13.778Z,9.77
2022-12-18T16:43:46.938Z,9.73
2022-12-18T16:46:18.525Z,9.93
2022-12-18T16:48:48.542Z,8.32
2022-12-18T16:51:16.846Z,9.75
2022-12-18T16:53:45.317Z,8.73
2022-12-18T16:56:13.637Z,9.45
2022-12-18T16:58:42.067Z,9.25
2022-12-18T17:01:12.679Z,8.85
2022-12-18T17:03:42.004Z,8.30
2022-12-18T17:06:13.795Z,8.32
2022-12-18T17:08:42.052Z,9.18
2022-12-18T17:11:10.658Z,9.23
2022-12-18T17:13:39.237Z,9.38
2022-12-18T17:16:09.370Z,8.98
2022-12-18T17:18:37.886Z,8.90
2022-12-18T17:21:09.586Z,11.02
2022-12-18T17:23:39.868Z,9.45
2022-12-18T17:26:10.558Z,9.88
2022-12-18T17:28:41.130Z,8.30
2022-12-18T17:31:14.039Z,9.48
2022-12-18T17:33:42.998Z,9.32
2022-12-18T17:36:12.579Z,9.00
2022-12-18T17:38:42.493Z,9.25
2022-12-18T17:41:12.996Z,9.45
2022-12-18T17:45:57.499Z,7.95
2022-12-18T17:48:27.321Z,9.07
2022-12-18T17:51:51.534Z,9.40
2022-12-18T17:54:19.956Z,9.38
2022-12-18T17:56:48.249Z,9.25
2022-12-18T17:59:16.533Z,8.40
2022-12-18T18:01:45.740Z,8.60
2022-12-18T18:04:16.749Z,8.77
2022-12-18T18:06:45.161Z,9.07
2022-12-18T18:09:16.797Z,8.60
2022-12-18T18:12:03.204Z,8.02
2022-12-18T18:14:33.882Z,8.95
2022-12-18T18:17:04.703Z,9.60
2022-12-18T18:19:34.405Z,9.38
2022-12-18T18:22:03.665Z,8.85
2022-12-18T18:24:35.196Z,9.20
2022-12-18T18:27:03.700Z,9.77
2022-12-18T18:29:32.516Z,9.30
2022-12-18T18:32:01.194Z,9.57
2022-12-18T18:34:32.899Z,9.80
2022-12-18T18:37:01.635Z,7.97
2022-12-18T18:39:30.387Z,9.10
2022-12-18T18:42:00.837Z,8.95
2022-12-18T18:44:29.277Z,9.95
2022-12-18T18:46:58.637Z,8.82
2022-12-18T18:49:28.405Z,10.40
2022-12-18T18:51:58.103Z,9.60
2022-12-18T18:54:26.858Z,9.45
2022-12-18T18:59:44.999Z,9.45
2022-12-18T19:02:14.272Z,9.40
2022-12-18T19:04:46.531Z,9.18
2022-12-18T19:07:20.367Z,8.57
2022-12-18T19:10:04.254Z,10.32
2022-12-18T19:12:52.006Z,10.30
2022-12-18T19:15:21.951Z,7.97
2022-12-18T19:17:50.458Z,9.57
2022-12-18T19:20:19.168Z,11.02
2022-12-18T19:22:54.940Z,8.98
2022-12-18T19:25:40.722Z,8.85
2022-12-18T19:28:14.340Z,9.68
2022-12-18T19:30:57.583Z,9.88
2022-12-18T19:33:45.028Z,10.68
2022-12-18T19:36:20.031Z,9.70
2022-12-18T19:38:48.858Z,10.18
2022-12-18T19:41:19.098Z,9.32
2022-12-18T19:43:47.808Z,10.18
2022-12-18T19:46:20.353Z,9.77
2022-12-18T19:48:49.206Z,11.10
2022-12-18T19:51:19.867Z,11.65
2022-12-18T19:53:49.261Z,10.02
2022-12-18T19:56:23.671Z,11.85
2022-12-18T19:58:52.376Z,9.60
2022-12-18T20:01:25.088Z,11.02
2022-12-18T20:03:55.271Z,9.02
2022-12-18T20:09:00.258Z,10.70
2022-12-18T20:11:30.495Z,9.32
2022-12-18T20:13:59.303Z,10.10
2022-12-18T20:16:29.398Z,10.45
2022-12-18T20:18:59.355Z,11.23
2022-12-18T20:21:27.673Z,9.80
2022-12-18T20:23:56.773Z,10.07
2022-12-18T20:26:25.351Z,11.35
2022-12-18T20:28:53.913Z,10.57
2022-12-18T20:38:15.924Z,9.80
2022-12-18T20:40:45.662Z,11.43
2022-12-18T20:43:17.351Z,11.95
2022-12-18T20:45:45.944Z,8.55
2022-12-18T20:48:15.368Z,10.40
2022-12-18T20:50:44.759Z,10.38
2022-12-18T20:53:13.083Z,9.52
2022-12-18T20:55:44.709Z,10.18
2022-12-18T20:58:12.953Z,10.55
2022-12-18T21:00:41.280Z,10.68
2022-12-18T21:03:11.096Z,10.30
2022-12-18T21:05:39.774Z,8.85
2022-12-18T21:08:10.563Z,9.88
2022-12-18T21:10:42.449Z,10.73
2022-12-18T21:13:11.681Z,10.60
2022-12-18T21:15:41.267Z,10.93
2022-12-18T21:18:09.574Z,10.63
2022-12-18T21:20:38.526Z,9.43
2022-12-18T21:23:16.399Z,11.77
2022-12-18T21:25:45.703Z,10.20
2022-12-18T21:28:16.596Z,9.98
2022-12-18T21:30:45.038Z,10.80
2022-12-18T21:33:16.868Z,10.05
2022-12-18T21:35:45.146Z,9.23
2022-12-18T21:38:14.207Z,9.70
2022-12-18T21:40:42.570Z,11.02
2022-12-18T21:43:28.450Z,11.23
2022-12-18T21:45:58.177Z,11.13
2022-12-18T21:48:28.060Z,11.95
2022-12-18T21:50:56.359Z,10.68
2022-12-18T21:53:24.618Z,10.20
2022-12-18T21:55:59.159Z,10.38
2022-12-18T21:58:27.482Z,10.30
2022-12-18T22:00:57.098Z,11.00
2022-12-18T22:03:25.417Z,10.32
2022-12-18T22:06:08.834Z,11.50
2022-12-18T22:08:40.761Z,10.32
2022-12-18T22:11:13.900Z,10.98
2022-12-18T22:13:43.370Z,10.02
2022-12-18T22:16:13.025Z,10.05
2022-12-18T22:18:41.317Z,11.63
2022-12-18T22:21:25.411Z,11.32
2022-12-18T22:23:58.747Z,11.55
2022-12-18T22:26:28.759Z,10.23
2022-12-18T22:29:14.953Z,9.73
2022-12-18T22:31:44.696Z,10.77
2022-12-18T22:34:13.100Z,11.23
2022-12-18T22:36:43.883Z,10.38
2022-12-18T22:39:14.939Z,10.57
2022-12-18T22:41:43.458Z,11.50
2022-12-18T22:44:12.368Z,9.68
2022-12-18T22:46:50.062Z,10.55
2022-12-18T22:51:55.169Z,9.77
2022-12-18T22:54:24.335Z,11.45
2022-12-18T22:56:52.636Z,10.35
2022-12-18T22:59:24.611Z,10.00
2022-12-18T23:01:59.171Z,11.15
2022-12-18T23:04:36.438Z,10.05
2022-12-18T23:07:05.244Z,10.07
2022-12-18T23:09:34.700Z,10.00
2022-12-18T23:12:03.278Z,10.88
2022-12-18T23:14:31.928Z,10.18
2022-12-18T23:17:01.534Z,11.00
2022-12-18T23:19:30.002Z,10.52
2022-12-18T23:21:59.126Z,8.95
2022-12-18T23:24:27.685Z,9.90
2022-12-18T23:26:59.156Z,9.38
2022-12-18T23:29:27.812Z,10.75
2022-12-18T23:31:56.054Z,10.15
2022-12-18T23:34:25.750Z,9.30
2022-12-18T23:36:56.209Z,10.82
2022-12-18T23:39:29.808Z,10.30
2022-12-18T23:41:58.721Z,9.75
2022-12-18T23:44:27.110Z,9.93
2022-12-18T23:46:56.427Z,9.63
2022-12-18T23:49:26.098Z,9.85
2022-12-18T23:51:56.200Z,10.27
2022-12-18T23:54:33.059Z,9.98
2022-12-18T23:57:02.853Z,10.38
2022-12-18T23:59:31.116Z,9.30
